Time;durP1;ratioP1;P1;durP2;ratioP2;P2;SDS_P1;SDS_P2;PMS_P1;PMS_P2;Temp;Humidity;BMP_temperature;BMP_pressure;BME280_temperature;BME280_humidity;BME280_pressure;Samples;Min_cycle;Max_cycle;Signal;HPM_P1;HPM_P2
2023/02/16 00:00:18;;;;;;;34.95;20.27;;;1.80;99.90;;;1.52;100.00;98673.88;5063458;28;20552;-63
2023/02/16 00:02:45;;;;;;;37.88;22.63;;;1.90;99.90;;;1.34;100.00;98666.84;5060265;28;20049;-63
2023/02/16 00:05:33;;;;;;;36.17;20.55;;;2.00;99.90;;;1.64;100.00;98663.75;5058128;28;20076;-63
2023/02/16 00:08:01;;;;;;;35.00;19.17;;;2.10;99.90;;;1.83;100.00;98664.81;5058272;28;20057;-61
2023/02/16 00:10:34;;;;;;;32.08;19.23;;;2.20;99.90;;;1.88;100.00;98658.88;5056705;28;20044;-63
2023/02/16 00:15:59;;;;;;;32.22;17.17;;;2.50;99.90;;;2.36;100.00;98640.50;5058440;28;20448;-63
2023/02/16 00:18:26;;;;;;;30.27;16.73;;;2.70;99.90;;;2.48;100.00;98628.63;5064868;28;20056;-64
2023/02/16 00:20:53;;;;;;;29.30;17.45;;;2.80;99.90;;;2.38;100.00;98624.28;5056658;28;20388;-63
2023/02/16 00:23:20;;;;;;;28.60;16.33;;;3.00;99.90;;;2.38;100.00;98628.56;5055969;28;20140;-63
2023/02/16 00:25:48;;;;;;;31.63;16.80;;;3.10;99.90;;;2.46;100.00;98621.78;5066206;28;20057;-63
2023/02/16 00:28:18;;;;;;;36.38;20.48;;;3.10;99.90;;;2.39;100.00;98615.75;5061024;28;20079;-63
2023/02/16 00:30:46;;;;;;;24.83;15.40;;;3.10;99.90;;;2.68;100.00;98615.06;5085616;28;20052;-63
2023/02/16 00:33:17;;;;;;;34.60;17.73;;;3.20;99.90;;;2.85;100.00;98612.59;5058119;28;20144;-63
2023/02/16 00:35:44;;;;;;;25.33;15.93;;;3.30;99.90;;;2.94;100.00;98607.50;5063219;28;20048;-63
2023/02/16 00:38:12;;;;;;;26.08;15.13;;;3.40;99.90;;;3.05;100.00;98603.28;5062407;28;20037;-64
2023/02/16 00:40:40;;;;;;;25.35;15.10;;;3.50;99.90;;;3.16;100.00;98599.91;5093076;28;20124;-64
2023/02/16 00:43:38;;;;;;;30.23;16.88;;;3.60;99.90;;;3.27;100.00;98595.66;5090540;28;20044;-65
2023/02/16 00:46:05;;;;;;;24.92;15.35;;;3.70;99.90;;;3.19;100.00;98595.63;5071467;28;20056;-63
2023/02/16 00:48:36;;;;;;;29.58;16.83;;;3.80;99.90;;;3.09;100.00;98594.75;5053260;28;20124;-64
2023/02/16 00:51:03;;;;;;;29.73;15.38;;;3.80;99.90;;;3.04;100.00;98593.03;5055755;28;20045;-63
2023/02/16 00:53:49;;;;;;;27.50;16.35;;;3.70;99.90;;;2.82;100.00;98589.50;5062136;28;20503;-63
2023/02/16 00:56:19;;;;;;;29.35;16.00;;;3.70;99.90;;;2.70;100.00;98595.44;5064339;28;20045;-63
2023/02/16 00:58:49;;;;;;;27.88;15.45;;;3.50;99.90;;;2.59;100.00;98608.19;5060725;28;20482;-63
2023/02/16 01:01:20;;;;;;;33.60;17.98;;;3.40;99.90;;;2.57;100.00;98599.63;5061841;28;20059;-64
2023/02/16 01:03:47;;;;;;;28.65;16.63;;;3.40;99.90;;;2.57;100.00;98606.47;5061183;28;20084;-64
2023/02/16 01:12:00;;;;;;;29.83;16.55;;;3.30;99.90;;;2.77;100.00;98610.00;5061087;28;20053;-63
2023/02/16 01:14:31;;;;;;;28.90;14.98;;;3.30;99.90;;;2.83;100.00;98606.59;5058545;28;20048;-63
2023/02/16 01:16:58;;;;;;;29.27;16.83;;;3.40;99.90;;;2.85;100.00;98603.22;5066796;28;20060;-64
2023/02/16 01:19:25;;;;;;;28.95;16.60;;;3.40;99.90;;;2.87;100.00;98598.94;5062597;28;20055;-64
2023/02/16 01:21:52;;;;;;;29.75;16.48;;;3.40;99.90;;;2.93;100.00;98600.66;5059116;28;20050;-61
2023/02/16 01:24:19;;;;;;;33.10;19.25;;;3.40;99.90;;;2.77;100.00;98601.44;5060841;28;20139;-63
2023/02/16 01:26:49;;;;;;;35.17;19.80;;;3.30;99.90;;;2.69;100.00;98603.97;5061523;28;20128;-63
2023/02/16 01:29:19;;;;;;;35.78;19.77;;;3.30;99.90;;;2.49;100.00;98609.84;5066614;28;20048;-63
2023/02/16 01:31:46;;;;;;;37.92;22.48;;;3.30;99.90;;;2.29;100.00;98609.72;5042625;28;20098;-63
2023/02/16 01:34:14;;;;;;;37.70;21.67;;;3.30;99.90;;;2.34;100.00;98607.19;5060283;28;20113;-63
2023/02/16 01:36:44;;;;;;;37.75;18.83;;;3.10;99.90;;;2.21;100.00;98605.38;5064033;28;20052;-63
2023/02/16 01:39:18;;;;;;;34.00;19.30;;;3.00;99.90;;;2.25;100.00;98607.97;5059559;28;20045;-63
2023/02/16 01:42:04;;;;;;;42.33;23.20;;;2.90;99.90;;;2.20;100.00;98599.41;5064329;28;20529;-62
2023/02/16 01:45:01;;;;;;;28.88;17.42;;;2.90;99.90;;;2.07;100.00;98610.38;5059309;28;20048;-63
2023/02/16 01:47:47;;;;;;;30.58;16.38;;;2.90;99.90;;;2.09;100.00;98609.56;5090008;28;20053;-63
2023/02/16 01:50:39;;;;;;;29.73;17.33;;;2.80;99.90;;;1.97;100.00;98612.03;5065338;28;20215;-64
2023/02/16 01:53:35;;;;;;;32.85;18.38;;;2.80;99.90;;;1.97;100.00;98604.34;5041711;28;20135;-62
2023/02/16 01:56:13;;;;;;;33.45;18.65;;;2.80;99.90;;;1.99;100.00;98609.50;5060025;28;20135;-62
2023/02/16 01:58:47;;;;;;;31.02;17.13;;;2.80;99.90;;;1.78;100.00;98597.34;5064040;28;20087;-62
2023/02/16 02:01:41;;;;;;;31.05;18.08;;;2.80;99.90;;;1.68;100.00;98604.09;5092330;28;20616;-61
2023/02/16 02:07:00;;;;;;;34.70;20.15;;;2.50;99.90;;;1.30;100.00;98607.13;5061476;28;20099;-62
2023/02/16 02:09:46;;;;;;;31.35;19.23;;;2.40;99.90;;;1.53;100.00;98612.50;5057752;28;20044;-62
2023/02/16 02:12:34;;;;;;;37.25;21.73;;;2.30;99.90;;;1.09;100.00;98606.88;5061004;28;20110;-63
2023/02/16 02:15:01;;;;;;;38.17;21.70;;;2.20;99.90;;;1.16;100.00;98608.66;5061326;28;20052;-62
2023/02/16 02:17:28;;;;;;;34.50;19.58;;;2.10;99.90;;;1.13;100.00;98616.31;5056624;28;20679;-63
2023/02/16 02:20:05;;;;;;;36.67;19.60;;;2.00;99.90;;;1.24;100.00;98617.28;5057335;28;20060;-63
2023/02/16 02:26:05;;;;;;;34.13;19.27;;;2.00;99.90;;;1.29;100.00;98622.44;5062515;28;20059;-63
2023/02/16 02:29:00;;;;;;;31.27;18.90;;;2.10;99.90;;;1.45;100.00;98625.19;5061669;28;20060;-64
2023/02/16 02:32:04;;;;;;;30.85;17.20;;;2.10;99.90;;;1.58;100.00;98615.94;5062607;28;20048;-64
2023/02/16 02:34:33;;;;;;;33.17;18.85;;;2.10;99.90;;;1.52;100.00;98602.22;5059880;28;20056;-64
2023/02/16 02:37:09;;;;;;;35.35;19.52;;;2.10;99.90;;;1.42;100.00;98612.38;5055770;28;20132;-63
2023/02/16 02:39:54;;;;;;;32.92;19.65;;;2.20;99.90;;;1.43;100.00;98602.97;5056759;28;20570;-63
2023/02/16 02:42:53;;;;;;;33.00;19.80;;;2.20;99.90;;;1.46;100.00;98601.31;5056024;28;20060;-62
2023/02/16 02:45:34;;;;;;;32.40;19.52;;;2.20;99.90;;;1.33;100.00;98606.31;5053447;28;20579;-63
2023/02/16 02:48:01;;;;;;;33.63;19.80;;;2.20;99.90;;;1.21;100.00;98609.59;5054643;28;20048;-63
2023/02/16 03:03:14;;;;;;;34.63;20.65;;;2.00;99.90;;;1.18;100.00;98601.88;5056889;28;20183;-63
2023/02/16 03:05:48;;;;;;;35.80;20.98;;;1.80;99.90;;;1.22;100.00;98608.72;5057852;28;20048;-63
2023/02/16 03:08:20;;;;;;;34.90;19.95;;;1.80;99.90;;;1.27;100.00;98608.78;5048736;28;20060;-62
2023/02/16 03:13:59;;;;;;;37.13;21.70;;;1.60;99.90;;;0.73;100.00;98608.13;5053866;28;20045;-63
2023/02/16 03:16:34;;;;;;;39.25;21.00;;;1.60;99.90;;;0.82;100.00;98610.81;5053568;28;20056;-63
2023/02/16 03:30:17;;;;;;;38.78;21.92;;;1.40;99.90;;;0.80;100.00;98617.63;5054168;28;20048;-63
2023/02/16 03:32:46;;;;;;;39.05;21.98;;;1.30;99.90;;;0.98;100.00;98610.19;5054494;28;20066;-63
2023/02/16 03:35:14;;;;;;;33.45;19.60;;;1.40;99.90;;;1.09;100.00;98610.28;5054656;28;20141;-64
2023/02/16 03:37:43;;;;;;;36.53;21.27;;;1.40;99.90;;;0.92;100.00;98614.34;5088802;28;20735;-64
2023/02/16 03:40:29;;;;;;;35.70;20.05;;;1.50;99.90;;;0.91;100.00;98610.06;5055429;28;20060;-63
2023/02/16 03:42:59;;;;;;;39.53;20.73;;;1.50;99.90;;;0.95;100.00;98611.81;5081685;28;20440;-64
2023/02/16 03:45:28;;;;;;;36.83;20.48;;;1.50;99.90;;;1.09;100.00;98617.09;5055247;28;20045;-63
2023/02/16 03:47:55;;;;;;;35.20;19.60;;;1.50;99.90;;;1.16;100.00;98617.19;5057232;28;20131;-63
2023/02/16 03:50:22;;;;;;;38.85;21.42;;;1.50;99.90;;;0.96;100.00;98616.97;5050166;28;20052;-64
2023/02/16 03:52:49;;;;;;;35.28;21.50;;;1.60;99.90;;;1.01;100.00;98612.75;5053702;28;20059;-63
2023/02/16 03:55:16;;;;;;;35.28;20.88;;;1.60;99.90;;;1.12;100.00;98612.91;5056693;28;20802;-63
2023/02/16 03:57:43;;;;;;;37.80;21.40;;;1.60;99.90;;;1.05;100.00;98613.66;5044370;28;20422;-63
2023/02/16 04:00:11;;;;;;;35.13;20.35;;;1.60;99.90;;;1.13;100.00;98626.53;5057007;28;20048;-62
2023/02/16 04:02:39;;;;;;;33.83;20.13;;;1.60;99.90;;;1.06;100.00;98623.03;5060876;28;20059;-65
2023/02/16 04:05:09;;;;;;;32.70;20.02;;;1.60;99.90;;;1.24;100.00;98624.97;5054480;28;20051;-62
2023/02/16 04:07:36;;;;;;;34.40;20.67;;;1.60;99.90;;;1.11;100.00;98623.94;5054488;28;20052;-63
2023/02/16 04:10:04;;;;;;;37.05;21.50;;;1.60;99.90;;;1.10;100.00;98623.94;5053345;28;20045;-63
2023/02/16 04:12:37;;;;;;;36.88;21.48;;;1.50;99.90;;;1.22;100.00;98624.94;5055519;28;20456;-63
2023/02/16 04:15:25;;;;;;;35.47;21.30;;;1.60;99.90;;;1.03;100.00;98620.47;5058040;28;20166;-62
2023/02/16 04:17:52;;;;;;;38.45;21.70;;;1.60;99.90;;;0.90;100.00;98613.47;5053938;28;20060;-62
2023/02/16 04:20:24;;;;;;;39.70;23.13;;;1.60;99.90;;;0.92;100.00;98609.25;5086436;28;20132;-63
2023/02/16 04:22:52;;;;;;;35.50;20.83;;;1.60;99.90;;;1.11;100.00;98612.88;5050877;28;20056;-63
2023/02/16 04:25:19;;;;;;;40.38;21.42;;;1.50;99.90;;;1.08;100.00;98611.13;5055804;28;20056;-63
2023/02/16 04:27:47;;;;;;;33.67;20.42;;;1.50;99.90;;;0.98;100.00;98604.19;5053639;28;20179;-63
2023/02/16 04:30:19;;;;;;;39.55;21.55;;;1.50;99.90;;;0.62;100.00;98605.44;5054114;28;20053;-62
2023/02/16 04:32:47;;;;;;;38.53;21.77;;;1.40;99.90;;;0.55;100.00;98612.16;5045223;28;20047;-62
2023/02/16 04:35:14;;;;;;;36.95;21.35;;;1.30;99.90;;;0.46;100.00;98617.16;5051562;28;20053;-63
2023/02/16 04:37:42;;;;;;;35.70;20.98;;;1.20;99.90;;;0.60;100.00;98617.34;5053930;28;20055;-63
2023/02/16 04:40:14;;;;;;;39.17;23.77;;;1.10;99.90;;;0.62;100.00;98623.34;5059264;28;20140;-63
2023/02/16 04:42:43;;;;;;;41.08;24.00;;;1.10;99.90;;;0.18;100.00;98626.06;5065398;28;20515;-63
2023/02/16 04:45:11;;;;;;;37.03;21.20;;;1.10;99.90;;;0.19;100.00;98628.66;5056836;28;20060;-63
2023/02/16 04:47:38;;;;;;;38.80;22.77;;;0.90;99.90;;;0.36;100.00;98616.13;5057555;28;20128;-63
2023/02/16 04:50:06;;;;;;;41.72;23.35;;;0.90;99.90;;;-0.08;100.00;98618.88;5061160;28;20815;-64
2023/02/16 04:52:33;;;;;;;42.78;23.08;;;0.90;99.90;;;0.18;100.00;98626.97;5056303;28;20056;-63
2023/02/16 04:55:00;;;;;;;38.33;22.52;;;0.90;99.90;;;0.38;100.00;98621.28;5060160;28;20621;-63
2023/02/16 04:57:27;;;;;;;39.28;22.52;;;0.90;99.90;;;0.58;100.00;98619.00;5073342;28;20060;-62
2023/02/16 04:59:54;;;;;;;36.00;22.48;;;0.90;99.90;;;0.69;100.00;98626.84;5046737;28;20061;-62
2023/02/16 05:02:21;;;;;;;42.45;24.23;;;1.00;99.90;;;0.44;100.00;98623.94;5059610;28;20527;-62
2023/02/16 05:04:48;;;;;;;41.55;23.30;;;1.10;99.90;;;0.70;100.00;98626.84;5060668;28;20534;-63
2023/02/16 05:07:15;;;;;;;42.97;23.33;;;1.10;99.90;;;0.73;100.00;98621.78;5059678;28;20133;-62
2023/02/16 05:09:42;;;;;;;48.35;25.88;;;1.20;99.90;;;0.57;100.00;98622.38;5058937;28;20056;-62
2023/02/16 05:14:55;;;;;;;49.10;24.70;;;1.20;99.90;;;0.77;100.00;98626.06;5054442;28;20049;-62
2023/02/16 05:17:26;;;;;;;51.03;27.90;;;1.20;99.90;;;0.58;100.00;98621.56;5055021;28;20044;-61
2023/02/16 05:19:59;;;;;;;49.33;26.20;;;1.20;99.90;;;0.75;100.00;98627.78;5058976;28;20067;-61
2023/02/16 05:22:32;;;;;;;46.80;25.00;;;1.20;99.90;;;0.84;100.00;98614.25;5056193;28;20458;-62
2023/02/16 05:25:00;;;;;;;;;;;1.20;99.90;;;0.72;100.00;98625.16;5062868;28;20085;-63
2023/02/16 05:27:29;;;;;;;55.33;24.90;;;1.30;99.90;;;0.55;100.00;98627.50;5058298;28;19924;-63
2023/02/16 05:29:57;;;;;;;40.70;23.88;;;1.30;99.90;;;0.46;100.00;98621.38;5087625;28;20049;-63
2023/02/16 05:32:25;;;;;;;44.88;25.10;;;1.40;99.90;;;0.41;100.00;98627.31;5060078;28;20463;-62
2023/02/16 05:34:51;;;;;;;39.55;22.55;;;1.40;99.90;;;0.61;100.00;98632.66;5063069;28;20071;-62
2023/02/16 05:37:19;;;;;;;46.00;25.13;;;1.40;99.90;;;0.64;100.00;98626.78;5055119;28;20051;-62
2023/02/16 05:39:46;;;;;;;42.88;24.90;;;1.40;99.90;;;0.77;100.00;98630.34;5054025;28;20450;-62
2023/02/16 05:42:13;;;;;;;40.95;24.02;;;1.50;99.90;;;0.87;100.00;98631.31;5056300;28;20048;-62
2023/02/16 05:44:40;;;;;;;39.83;23.48;;;1.60;99.90;;;0.91;100.00;98633.91;5057247;28;20101;-62
2023/02/16 05:47:07;;;;;;;42.08;23.77;;;1.60;99.90;;;1.07;100.00;98636.69;5055982;28;20055;-62
2023/02/16 05:49:34;;;;;;;40.33;23.75;;;1.70;99.90;;;1.28;100.00;98638.63;5049553;28;20182;-62
2023/02/16 05:52:01;;;;;;;37.85;22.33;;;1.80;99.90;;;1.32;100.00;98640.38;5054912;28;20053;-62
2023/02/16 05:54:28;;;;;;;40.72;23.25;;;1.80;99.90;;;1.25;100.00;98642.00;5055815;28;20076;-62
2023/02/16 05:56:55;;;;;;;39.90;23.05;;;1.90;99.90;;;1.29;100.00;98641.22;5063422;28;20056;-61
2023/02/16 05:59:22;;;;;;;41.53;24.10;;;1.80;99.90;;;1.28;100.00;98644.63;5056832;28;20504;-62
2023/02/16 06:01:49;;;;;;;39.33;24.08;;;1.90;99.90;;;1.37;100.00;98652.41;5055890;28;20044;-63
2023/02/16 06:04:19;;;;;;;42.60;22.45;;;1.90;99.90;;;1.42;100.00;98649.91;5062118;28;20060;-62
2023/02/16 06:06:47;;;;;;;50.90;25.52;;;1.90;99.90;;;1.35;100.00;98643.84;5058450;28;20059;-62
2023/02/16 06:09:13;;;;;;;42.25;24.50;;;2.00;99.90;;;1.32;100.00;98653.16;5057538;28;20057;-62
2023/02/16 06:11:41;;;;;;;43.28;24.50;;;2.10;99.90;;;1.28;100.00;98652.28;5053197;28;20045;-61
2023/02/16 06:14:12;;;;;;;43.25;25.63;;;2.10;99.90;;;1.34;100.00;98651.50;5053634;28;20151;-61
2023/02/16 06:16:43;;;;;;;41.38;22.85;;;2.10;99.90;;;1.40;100.00;98647.31;5062465;28;20124;-62
2023/02/16 06:19:11;;;;;;;50.45;29.63;;;2.00;99.90;;;1.27;100.00;98652.28;5085734;28;20099;-61
2023/02/16 06:21:39;;;;;;;51.55;27.20;;;2.00;99.90;;;1.14;100.00;98657.25;5051379;28;20084;-62
2023/02/16 06:24:09;;;;;;;44.85;24.13;;;2.00;99.90;;;1.28;100.00;98657.41;5056585;28;20124;-60
2023/02/16 06:26:36;;;;;;;42.17;23.10;;;2.00;99.90;;;1.31;100.00;98652.31;5059836;28;20052;-62
2023/02/16 06:29:04;;;;;;;36.95;21.95;;;1.90;99.90;;;1.37;100.00;98654.97;5062116;28;20138;-61
2023/02/16 06:31:32;;;;;;;41.97;23.50;;;1.90;99.90;;;1.33;100.00;98660.03;5056405;28;20045;-62
2023/02/16 06:34:02;;;;;;;42.97;23.05;;;1.90;99.90;;;1.27;100.00;98655.69;5055606;28;20041;-61
2023/02/16 06:36:30;;;;;;;45.00;24.05;;;2.00;99.90;;;1.33;100.00;98657.47;5055072;28;20048;-61
2023/02/16 06:38:57;;;;;;;40.05;21.67;;;1.90;99.90;;;1.25;100.00;98663.34;5055611;28;20136;-62
2023/02/16 06:41:30;;;;;;;41.10;23.15;;;2.00;99.90;;;1.38;100.00;98663.47;5054332;28;20057;-62
2023/02/16 06:43:59;;;;;;;37.67;23.05;;;2.00;99.90;;;1.42;100.00;98653.31;5054593;28;20045;-61
2023/02/16 06:46:27;;;;;;;44.85;24.45;;;2.00;99.90;;;1.37;100.00;98649.84;5055732;28;20063;-61
2023/02/16 06:48:54;;;;;;;40.28;22.42;;;2.10;99.90;;;1.39;100.00;98658.41;5063079;28;20848;-61
2023/02/16 06:51:21;;;;;;;39.00;23.40;;;2.10;99.90;;;1.37;100.00;98648.97;5056591;28;20059;-61
2023/02/16 06:53:48;;;;;;;38.70;22.23;;;2.20;99.90;;;1.52;100.00;98655.97;5061854;28;20049;-61
2023/02/16 06:56:18;;;;;;;39.30;21.65;;;2.10;99.90;;;1.62;100.00;98644.97;5054621;28;20086;-61
2023/02/16 06:58:45;;;;;;;37.28;21.50;;;2.10;99.90;;;1.61;100.00;98649.22;5053932;28;20041;-61
2023/02/16 07:01:13;;;;;;;42.45;22.55;;;2.10;99.90;;;1.58;100.00;98644.09;5058520;28;20800;-61
2023/02/16 07:03:40;;;;;;;39.92;24.42;;;2.00;99.90;;;1.70;100.00;98657.84;5052154;28;20066;-61
2023/02/16 07:06:07;;;;;;;38.92;21.95;;;2.00;99.90;;;1.70;100.00;98653.59;5055085;28;20075;-61
2023/02/16 07:08:34;;;;;;;41.35;24.05;;;2.00;99.90;;;1.68;100.00;98656.13;5051308;28;20048;-61
2023/02/16 07:11:02;;;;;;;44.08;23.45;;;2.00;99.90;;;1.78;100.00;98659.66;5055365;28;20414;-61
2023/02/16 07:13:29;;;;;;;41.05;22.80;;;2.10;99.90;;;1.39;100.00;98655.84;5051106;28;20049;-59
2023/02/16 07:15:56;;;;;;;38.55;22.48;;;2.10;99.90;;;1.43;100.00;98665.25;5043548;28;20060;-61
2023/02/16 07:18:23;;;;;;;39.58;23.17;;;2.10;99.90;;;1.62;100.00;98662.88;5056378;28;20048;-63
2023/02/16 07:20:50;;;;;;;37.33;22.98;;;2.10;99.90;;;1.57;100.00;98665.38;5054403;28;20056;-61
2023/02/16 07:23:17;;;;;;;47.40;25.63;;;2.10;99.90;;;1.41;100.00;98666.06;5062380;28;20139;-62
2023/02/16 07:25:44;;;;;;;48.47;26.58;;;2.20;99.90;;;1.46;100.00;98665.28;5052381;28;20048;-61
2023/02/16 07:28:12;;;;;;;42.92;24.48;;;2.20;99.90;;;1.61;100.00;98666.28;5055791;28;20091;-61
2023/02/16 07:30:40;;;;;;;43.45;23.65;;;2.30;99.90;;;1.74;100.00;98667.28;5056004;28;20048;-59
2023/02/16 07:33:07;;;;;;;39.85;25.70;;;2.50;99.90;;;1.81;100.00;98675.03;5055916;28;20491;-61
2023/02/16 07:35:35;;;;;;;43.20;24.77;;;2.50;99.90;;;1.76;100.00;98680.97;5058143;28;20827;-61
2023/02/16 07:38:03;;;;;;;41.72;23.27;;;2.60;99.90;;;2.03;100.00;98680.34;5051023;28;20052;-61
2023/02/16 07:40:31;;;;;;;46.33;25.55;;;2.70;99.90;;;2.16;100.00;98678.75;5043927;28;20048;-62
2023/02/16 07:43:03;;;;;;;42.17;22.20;;;2.80;99.90;;;2.33;100.00;98679.78;5044249;28;20506;-62
2023/02/16 07:45:34;;;;;;;40.05;23.27;;;2.90;99.90;;;2.27;100.00;98677.16;5045818;28;20060;-61
2023/02/16 07:48:01;;;;;;;39.17;23.48;;;3.00;99.90;;;2.44;100.00;98684.97;5044214;28;20052;-62
2023/02/16 07:50:28;;;;;;;39.45;22.80;;;3.10;99.90;;;2.58;100.00;98673.13;5042556;28;20048;-62
2023/02/16 07:52:55;;;;;;;44.25;23.33;;;3.20;99.90;;;2.76;100.00;98664.69;5044089;28;20046;-62
2023/02/16 07:55:22;;;;;;;35.05;20.70;;;3.20;99.90;;;2.91;100.00;98658.78;5044799;28;20049;-63
2023/02/16 07:57:55;;;;;;;36.92;20.67;;;3.30;99.90;;;2.96;100.00;98657.09;5046528;28;20049;-61
2023/02/16 08:00:23;;;;;;;34.15;19.92;;;;;;;3.08;100.00;98653.72;5044227;28;20049;-63
2023/02/16 08:02:50;;;;;;;33.15;20.60;;;3.50;99.90;;;3.03;100.00;98653.72;5043549;28;20056;-62
2023/02/16 08:05:17;;;;;;;33.95;19.77;;;3.60;99.90;;;3.25;100.00;98654.66;5042683;28;20139;-63
2023/02/16 08:07:44;;;;;;;33.95;20.23;;;3.70;99.90;;;3.70;100.00;98649.69;5046619;28;20061;-62
2023/02/16 08:10:13;;;;;;;34.20;20.23;;;4.00;99.90;;;3.70;100.00;98629.16;5043973;28;20049;-62
2023/02/16 08:12:40;;;;;;;31.63;19.17;;;4.20;99.90;;;3.91;100.00;98629.16;5047636;28;20045;-62
2023/02/16 08:15:08;;;;;;;33.65;19.10;;;4.50;99.90;;;3.97;100.00;98628.31;5049106;28;20144;-62
2023/02/16 08:17:36;;;;;;;31.83;18.65;;;4.50;99.90;;;4.48;100.00;98630.88;5047000;28;20048;-61
2023/02/16 08:20:07;;;;;;;30.98;20.17;;;4.70;99.90;;;4.82;100.00;98617.06;5045928;28;20057;-62
2023/02/16 08:22:35;;;;;;;34.47;21.15;;;5.20;99.90;;;4.93;100.00;98627.34;5046881;28;20162;-63
2023/02/16 08:25:04;;;;;;;29.00;21.08;;;5.50;99.90;;;5.07;100.00;98613.56;5049036;28;20063;-63
2023/02/16 08:27:33;;;;;;;30.15;20.83;;;5.70;99.90;;;4.81;100.00;98614.50;5046408;28;20053;-62
2023/02/16 08:29:59;;;;;;;33.70;19.23;;;5.60;99.90;;;4.45;100.00;98629.16;5040230;28;20084;-63
2023/02/16 08:32:27;;;;;;;29.75;19.88;;;5.50;99.90;;;4.75;100.00;98628.25;5080503;28;20118;-62
2023/02/16 08:34:55;;;;;;;29.73;20.17;;;5.50;99.90;;;4.74;100.00;98620.53;5048409;28;20052;-62
2023/02/16 08:37:21;;;;;;;31.80;20.05;;;5.50;99.90;;;4.66;100.00;98617.13;5050192;28;20877;-62
2023/02/16 08:39:49;;;;;;;30.92;19.85;;;5.50;99.90;;;4.64;100.00;98634.28;5047537;28;20083;-62
2023/02/16 08:42:16;;;;;;;30.63;19.50;;;5.50;99.90;;;4.71;100.00;98634.25;5047910;28;20056;-61
2023/02/16 08:44:43;;;;;;;34.03;19.60;;;5.50;99.90;;;4.67;100.00;98637.69;5046016;28;20054;-62
2023/02/16 08:47:11;;;;;;;30.48;18.38;;;5.50;99.90;;;4.91;100.00;98643.66;5050974;28;20569;-62
2023/02/16 08:49:38;;;;;;;29.40;18.00;;;5.60;99.90;;;4.88;100.00;98620.47;5047535;28;20056;-62
2023/02/16 08:52:05;;;;;;;28.15;18.00;;;5.50;99.90;;;4.88;100.00;98644.50;5081268;28;20041;-61
2023/02/16 08:54:33;;;;;;;33.97;18.92;;;5.60;99.90;;;4.81;100.00;98638.53;5047430;28;20221;-62
2023/02/16 08:57:01;;;;;;;31.85;17.98;;;5.60;99.90;;;4.84;100.00;98637.66;5050753;28;20043;-63
2023/02/16 08:59:29;;;;;;;28.35;18.02;;;5.70;99.90;;;4.92;100.00;98646.19;5050035;28;20041;-60
2023/02/16 09:01:58;;;;;;;30.15;18.40;;;5.70;99.90;;;4.97;100.00;98652.19;5047720;28;20519;-63
2023/02/16 09:04:27;;;;;;;31.88;18.65;;;5.80;99.90;;;5.12;100.00;98646.13;5063725;28;20056;-62
2023/02/16 09:06:56;;;;;;;36.78;19.48;;;5.90;99.90;;;5.27;100.00;98645.22;5083719;28;20049;-63
2023/02/16 09:09:25;;;;;;;28.17;17.40;;;5.90;99.90;;;5.41;100.00;98642.59;5047636;28;20060;-62
2023/02/16 09:11:52;;;;;;;32.65;19.42;;;6.00;99.90;;;5.53;100.00;98639.09;5049499;28;20045;-62
2023/02/16 09:14:20;;;;;;;26.52;17.45;;;6.10;99.90;;;5.52;100.00;98642.50;5047272;28;20050;-63
2023/02/16 09:16:47;;;;;;;31.50;18.60;;;6.10;99.90;;;5.64;100.00;98637.31;5048642;28;20045;-62
2023/02/16 09:19:19;;;;;;;30.25;18.10;;;6.30;99.90;;;5.82;100.00;98626.91;5049657;28;20559;-64
2023/02/16 09:21:49;;;;;;;25.98;17.58;;;6.40;99.90;;;6.00;100.00;98628.53;5045500;28;20145;-63
2023/02/16 09:24:16;;;;;;;31.13;17.88;;;6.50;99.90;;;6.15;100.00;98624.09;5044686;28;20075;-62
2023/02/16 09:26:44;;;;;;;33.10;18.38;;;6.60;99.90;;;6.19;100.00;98623.22;5044473;28;20056;-61
2023/02/16 09:29:12;;;;;;;27.92;17.42;;;6.60;99.90;;;6.17;100.00;98622.38;5062734;28;20049;-62
2023/02/16 09:31:41;;;;;;;25.42;16.20;;;6.70;99.90;;;6.32;100.00;98619.69;5048646;28;20045;-60
2023/02/16 09:34:16;;;;;;;27.48;17.50;;;6.80;99.90;;;6.43;100.00;98627.28;5045245;28;20041;-62
2023/02/16 09:36:44;;;;;;;26.55;17.20;;;7.00;99.90;;;6.48;100.00;98628.13;5048994;28;20071;-61
2023/02/16 09:39:12;;;;;;;25.13;17.42;;;7.00;99.90;;;6.52;100.00;98610.88;5047163;28;20449;-61
2023/02/16 09:41:39;;;;;;;26.90;17.08;;;7.10;99.90;;;6.61;100.00;98621.13;5046792;28;20571;-62
2023/02/16 09:44:52;;;;;;;25.48;15.93;;;7.20;99.90;;;6.66;100.00;98615.06;5042408;28;20061;-62
2023/02/16 09:47:30;;;;;;;27.17;16.30;;;7.30;99.90;;;6.87;100.00;98610.53;5047160;28;20059;-62
2023/02/16 09:50:12;;;;;;;27.40;15.80;;;7.50;99.90;;;6.95;100.00;98607.84;5047835;28;20053;-62
2023/02/16 09:52:50;;;;;;;27.70;16.02;;;7.60;99.90;;;7.11;100.00;98609.38;5045796;28;20520;-63
2023/02/16 09:55:19;;;;;;;23.67;15.35;;;7.80;99.90;;;7.26;100.00;98601.44;5047715;28;20207;-61
2023/02/16 09:58:06;;;;;;;25.73;16.70;;;7.80;99.90;;;7.10;100.00;98600.78;5045277;28;20047;-61
2023/02/16 10:00:39;;;;;;;23.23;14.73;;;7.80;99.90;;;7.16;100.00;98602.44;5078271;28;20041;-63
2023/02/16 10:03:23;;;;;;;23.08;14.73;;;7.80;99.90;;;7.19;100.00;98594.66;5044285;28;20049;-62
2023/02/16 10:06:23;;;;;;;23.73;15.48;;;7.90;99.90;;;7.40;100.00;98598.69;5047190;28;20063;-61
2023/02/16 10:09:01;;;;;;;21.95;14.90;;;7.90;99.90;;;7.58;100.00;98601.91;5040343;28;20502;-63
2023/02/16 10:11:45;;;;;;;24.02;15.63;;;8.10;99.90;;;7.29;100.00;98601.41;5037075;28;20053;-61
2023/02/16 10:14:31;;;;;;;22.75;15.07;;;8.30;99.90;;;7.81;100.00;98598.97;5047552;28;20614;-62
2023/02/16 10:17:32;;;;;;;23.58;16.15;;;8.60;99.90;;;8.13;100.00;98604.47;5040329;28;20102;-63
2023/02/16 10:20:10;;;;;;;20.90;14.60;;;8.70;99.90;;;8.00;100.00;98592.63;5042425;28;20056;-62
2023/02/16 10:22:49;;;;;;;22.42;15.23;;;8.80;99.90;;;8.03;100.00;98602.94;5047347;28;20053;-62
2023/02/16 10:25:31;;;;;;;30.52;20.08;;;8.90;99.90;;;8.10;100.00;98604.53;5077134;28;20172;-62
2023/02/16 10:28:32;;;;;;;31.23;20.93;;;9.20;99.90;;;8.49;100.00;98603.94;5076861;28;20055;-62
2023/02/16 10:31:13;;;;;;;19.98;14.25;;;9.40;99.90;;;8.74;100.00;98583.63;5044036;28;20138;-62
2023/02/16 10:33:58;;;;;;;21.73;16.27;;;9.60;99.90;;;8.51;100.00;98602.16;5045862;28;20049;-62
2023/02/16 10:36:58;;;;;;;22.65;14.93;;;9.70;99.90;;;8.44;100.00;98592.78;5047205;28;20504;-62
2023/02/16 10:39:53;;;;;;;28.05;18.00;;;9.80;99.90;;;8.79;100.00;98603.34;5044098;28;20124;-62
2023/02/16 10:42:26;;;;;;;18.60;13.73;;;10.00;99.90;;;9.04;100.00;98599.44;5018338;28;20080;-63
2023/02/16 10:45:13;;;;;;;20.42;14.85;;;10.20;99.90;;;9.12;100.00;98582.00;5048019;28;20049;-62
2023/02/16 10:47:42;;;;;;;18.20;13.13;;;10.20;99.90;;;9.24;100.00;98580.88;5046289;28;20067;-63
2023/02/16 10:50:26;;;;;;;18.98;14.10;;;10.20;99.90;;;9.63;100.00;98574.84;5044896;28;20051;-63
2023/02/16 10:53:00;;;;;;;21.45;12.80;;;10.30;99.90;;;9.48;100.00;98584.69;5047149;28;20126;-63
2023/02/16 10:55:27;;;;;;;17.02;12.60;;;10.50;99.90;;;9.57;100.00;98579.31;5028836;28;20127;-63
2023/02/16 10:58:03;;;;;;;17.80;11.75;;;10.60;99.90;;;9.60;100.00;98579.22;5047209;28;20559;-62
2023/02/16 11:00:54;;;;;;;17.52;12.70;;;10.60;99.90;;;9.11;100.00;98599.28;5028222;28;20045;-63
2023/02/16 11:03:28;;;;;;;18.40;12.15;;;10.50;99.90;;;9.03;100.00;98579.59;5045037;28;20049;-62
2023/02/16 11:05:55;;;;;;;21.67;12.13;;;10.40;99.90;;;9.31;100.00;98562.59;5043387;28;20144;-60
2023/02/16 11:08:24;;;;;;;17.38;11.75;;;10.20;99.90;;;9.20;100.00;98572.34;5034985;28;20534;-62
2023/02/16 11:10:53;;;;;;;17.40;12.05;;;10.20;99.90;;;9.31;100.00;98567.78;5044359;28;20568;-61
2023/02/16 11:13:34;;;;;;;17.92;11.43;;;10.10;99.90;;;9.48;100.00;98574.31;5044643;28;20080;-62
2023/02/16 11:16:12;;;;;;;19.58;11.57;;;10.10;99.90;;;9.13;100.00;98565.59;5044324;28;20766;-63